sensor_id;sensor_type;location;lat;lon;timestamp;temperature;humidity
34099;DHT22;20374;49.474;10.944;2024-02-26T00:01:54;2.20;99.90
34099;DHT22;20374;49.474;10.944;2024-02-26T00:04:20;2.20;99.90
34099;DHT22;20374;49.474;10.944;2024-02-26T00:06:50;2.20;99.90
34099;DHT22;20374;49.474;10.944;2024-02-26T00:09:17;2.10;99.90
34099;DHT22;20374;49.474;10.944;2024-02-26T00:11:43;2.10;99.90
34099;DHT22;20374;49.474;10.944;2024-02-26T00:14:09;2.10;99.90
34099;DHT22;20374;49.474;10.944;2024-02-26T00:16:35;2.00;99.90
34099;DHT22;20374;49.474;10.944;2024-02-26T00:19:00;2.00;99.90
34099;DHT22;20374;49.474;10.944;2024-02-26T00:21:27;2.00;99.90
34099;DHT22;20374;49.474;10.944;2024-02-26T00:23:53;1.90;99.90
34099;DHT22;20374;49.474;10.944;2024-02-26T00:26:19;2.00;99.90
34099;DHT22;20374;49.474;10.944;2024-02-26T00:28:45;2.20;99.90
34099;DHT22;20374;49.474;10.944;2024-02-26T00:31:11;2.20;99.90
34099;DHT22;20374;49.474;10.944;2024-02-26T00:33:37;2.20;99.90
34099;DHT22;20374;49.474;10.944;2024-02-26T00:36:04;2.10;99.90
34099;DHT22;20374;49.474;10.944;2024-02-26T00:38:30;2.00;99.90
34099;DHT22;20374;49.474;10.944;2024-02-26T00:40:56;1.90;99.90
34099;DHT22;20374;49.474;10.944;2024-02-26T00:43:22;1.90;99.90
34099;DHT22;20374;49.474;10.944;2024-02-26T00:45:48;1.80;99.90
34099;DHT22;20374;49.474;10.944;2024-02-26T00:48:17;1.80;99.90
34099;DHT22;20374;49.474;10.944;2024-02-26T00:50:43;1.80;99.90
34099;DHT22;20374;49.474;10.944;2024-02-26T00:53:08;1.80;99.90
34099;DHT22;20374;49.474;10.944;2024-02-26T00:55:34;1.80;99.90
34099;DHT22;20374;49.474;10.944;2024-02-26T00:58:00;1.90;99.90
34099;DHT22;20374;49.474;10.944;2024-02-26T01:00:26;1.80;99.90
34099;DHT22;20374;49.474;10.944;2024-02-26T01:02:52;1.80;99.90
34099;DHT22;20374;49.474;10.944;2024-02-26T01:05:18;1.70;99.90
34099;DHT22;20374;49.474;10.944;2024-02-26T01:07:44;1.70;99.90
34099;DHT22;20374;49.474;10.944;2024-02-26T01:10:10;1.70;99.90
34099;DHT22;20374;49.474;10.944;2024-02-26T01:12:35;1.70;99.90
34099;DHT22;20374;49.474;10.944;2024-02-26T01:15:02;1.70;99.90
34099;DHT22;20374;49.474;10.944;2024-02-26T01:17:31;1.60;99.90
34099;DHT22;20374;49.474;10.944;2024-02-26T01:19:57;1.60;99.90
34099;DHT22;20374;49.474;10.944;2024-02-26T01:22:23;1.60;99.90
34099;DHT22;20374;49.474;10.944;2024-02-26T01:24:48;1.70;99.90
34099;DHT22;20374;49.474;10.944;2024-02-26T01:27:14;1.80;99.90
34099;DHT22;20374;49.474;10.944;2024-02-26T01:29:42;1.90;99.90
34099;DHT22;20374;49.474;10.944;2024-02-26T01:32:08;2.00;99.90
34099;DHT22;20374;49.474;10.944;2024-02-26T01:34:34;2.10;99.90
34099;DHT22;20374;49.474;10.944;2024-02-26T01:37:00;2.20;99.90
34099;DHT22;20374;49.474;10.944;2024-02-26T01:39:26;2.30;99.90
34099;DHT22;20374;49.474;10.944;2024-02-26T01:41:54;2.40;99.90
34099;DHT22;20374;49.474;10.944;2024-02-26T01:44:21;2.40;99.90
34099;DHT22;20374;49.474;10.944;2024-02-26T01:46:48;2.50;99.90
34099;DHT22;20374;49.474;10.944;2024-02-26T01:49:15;2.60;99.90
34099;DHT22;20374;49.474;10.944;2024-02-26T01:51:42;2.60;99.90
34099;DHT22;20374;49.474;10.944;2024-02-26T01:54:09;2.60;99.90
34099;DHT22;20374;49.474;10.944;2024-02-26T01:56:36;2.60;99.90
34099;DHT22;20374;49.474;10.944;2024-02-26T01:59:04;2.60;99.90
34099;DHT22;20374;49.474;10.944;2024-02-26T02:01:32;2.60;99.90
34099;DHT22;20374;49.474;10.944;2024-02-26T02:04:00;2.70;99.90
34099;DHT22;20374;49.474;10.944;2024-02-26T02:06:26;2.60;99.90
34099;DHT22;20374;49.474;10.944;2024-02-26T02:08:56;2.60;99.90
34099;DHT22;20374;49.474;10.944;2024-02-26T02:11:24;2.60;99.90
34099;DHT22;20374;49.474;10.944;2024-02-26T02:13:51;2.60;99.90
34099;DHT22;20374;49.474;10.944;2024-02-26T02:16:16;2.50;99.90
34099;DHT22;20374;49.474;10.944;2024-02-26T02:18:42;2.60;99.90
34099;DHT22;20374;49.474;10.944;2024-02-26T02:21:08;2.60;99.90
34099;DHT22;20374;49.474;10.944;2024-02-26T02:23:34;2.70;99.90
34099;DHT22;20374;49.474;10.944;2024-02-26T02:26:00;2.70;99.90
34099;DHT22;20374;49.474;10.944;2024-02-26T02:28:27;2.90;99.90
34099;DHT22;20374;49.474;10.944;2024-02-26T02:30:54;2.90;99.90
34099;DHT22;20374;49.474;10.944;2024-02-26T02:33:21;2.90;99.90
34099;DHT22;20374;49.474;10.944;2024-02-26T02:35:47;3.00;99.90
34099;DHT22;20374;49.474;10.944;2024-02-26T02:38:14;3.10;99.90
34099;DHT22;20374;49.474;10.944;2024-02-26T02:40:40;3.00;99.90
34099;DHT22;20374;49.474;10.944;2024-02-26T02:43:05;2.90;99.90
34099;DHT22;20374;49.474;10.944;2024-02-26T02:45:31;2.90;99.90
34099;DHT22;20374;49.474;10.944;2024-02-26T02:47:57;2.80;99.90
34099;DHT22;20374;49.474;10.944;2024-02-26T02:50:23;2.70;99.90
34099;DHT22;20374;49.474;10.944;2024-02-26T02:52:49;2.70;99.90
34099;DHT22;20374;49.474;10.944;2024-02-26T02:55:16;2.70;99.90
34099;DHT22;20374;49.474;10.944;2024-02-26T02:57:42;2.70;99.90
34099;DHT22;20374;49.474;10.944;2024-02-26T03:00:11;2.80;99.90
34099;DHT22;20374;49.474;10.944;2024-02-26T03:02:37;2.70;99.90
34099;DHT22;20374;49.474;10.944;2024-02-26T03:05:04;2.70;99.90
34099;DHT22;20374;49.474;10.944;2024-02-26T03:07:30;2.70;99.90
34099;DHT22;20374;49.474;10.944;2024-02-26T03:09:56;2.60;99.90
34099;DHT22;20374;49.474;10.944;2024-02-26T03:12:24;2.70;99.90
34099;DHT22;20374;49.474;10.944;2024-02-26T03:14:50;2.70;99.90
34099;DHT22;20374;49.474;10.944;2024-02-26T03:17:17;2.70;99.90
34099;DHT22;20374;49.474;10.944;2024-02-26T03:19:44;2.70;99.90
34099;DHT22;20374;49.474;10.944;2024-02-26T03:22:13;2.70;99.90
34099;DHT22;20374;49.474;10.944;2024-02-26T03:24:39;2.70;99.90
34099;DHT22;20374;49.474;10.944;2024-02-26T03:27:04;2.70;99.90
34099;DHT22;20374;49.474;10.944;2024-02-26T03:29:35;2.70;99.90
34099;DHT22;20374;49.474;10.944;2024-02-26T03:32:01;2.70;99.90
34099;DHT22;20374;49.474;10.944;2024-02-26T03:34:28;2.70;99.90
34099;DHT22;20374;49.474;10.944;2024-02-26T03:36:54;2.80;99.90
34099;DHT22;20374;49.474;10.944;2024-02-26T03:39:20;2.80;99.90
34099;DHT22;20374;49.474;10.944;2024-02-26T03:41:46;2.80;99.90
34099;DHT22;20374;49.474;10.944;2024-02-26T03:44:11;2.80;99.90
34099;DHT22;20374;49.474;10.944;2024-02-26T03:46:37;2.70;99.90
34099;DHT22;20374;49.474;10.944;2024-02-26T03:49:03;2.70;99.90
34099;DHT22;20374;49.474;10.944;2024-02-26T03:51:29;2.60;99.90
34099;DHT22;20374;49.474;10.944;2024-02-26T03:54:00;2.60;99.90
34099;DHT22;20374;49.474;10.944;2024-02-26T03:56:26;2.60;99.90
34099;DHT22;20374;49.474;10.944;2024-02-26T03:58:53;2.50;99.90
34099;DHT22;20374;49.474;10.944;2024-02-26T04:01:19;2.60;99.90
34099;DHT22;20374;49.474;10.944;2024-02-26T04:03:45;2.60;99.90
34099;DHT22;20374;49.474;10.944;2024-02-26T04:06:11;2.50;99.90
34099;DHT22;20374;49.474;10.944;2024-02-26T04:08:41;2.50;99.90
34099;DHT22;20374;49.474;10.944;2024-02-26T04:11:06;2.50;99.90
34099;DHT22;20374;49.474;10.944;2024-02-26T04:13:33;2.50;99.90
34099;DHT22;20374;49.474;10.944;2024-02-26T04:16:00;2.50;99.90
34099;DHT22;20374;49.474;10.944;2024-02-26T04:18:27;2.50;99.90
34099;DHT22;20374;49.474;10.944;2024-02-26T04:20:53;2.70;99.90
34099;DHT22;20374;49.474;10.944;2024-02-26T04:23:19;2.80;99.90
34099;DHT22;20374;49.474;10.944;2024-02-26T04:25:45;2.90;99.90
34099;DHT22;20374;49.474;10.944;2024-02-26T04:28:12;2.90;99.90
34099;DHT22;20374;49.474;10.944;2024-02-26T04:30:38;2.80;99.90
34099;DHT22;20374;49.474;10.944;2024-02-26T04:33:04;2.80;99.90
34099;DHT22;20374;49.474;10.944;2024-02-26T04:35:30;2.80;99.90
34099;DHT22;20374;49.474;10.944;2024-02-26T04:37:57;2.70;99.90
34099;DHT22;20374;49.474;10.944;2024-02-26T04:40:23;2.70;99.90
34099;DHT22;20374;49.474;10.944;2024-02-26T04:42:50;2.70;99.90
34099;DHT22;20374;49.474;10.944;2024-02-26T04:45:15;2.70;99.90
34099;DHT22;20374;49.474;10.944;2024-02-26T04:47:41;2.70;99.90
34099;DHT22;20374;49.474;10.944;2024-02-26T04:50:07;2.80;99.90
34099;DHT22;20374;49.474;10.944;2024-02-26T04:52:33;2.80;99.90
34099;DHT22;20374;49.474;10.944;2024-02-26T04:54:59;2.80;99.90
34099;DHT22;20374;49.474;10.944;2024-02-26T04:57:26;2.90;99.90
34099;DHT22;20374;49.474;10.944;2024-02-26T04:59:52;2.90;99.90
34099;DHT22;20374;49.474;10.944;2024-02-26T05:02:18;3.00;99.90
34099;DHT22;20374;49.474;10.944;2024-02-26T05:04:43;3.00;99.90
34099;DHT22;20374;49.474;10.944;2024-02-26T05:07:09;3.00;99.90
34099;DHT22;20374;49.474;10.944;2024-02-26T05:09:35;2.90;99.90
34099;DHT22;20374;49.474;10.944;2024-02-26T05:12:02;2.80;99.90
34099;DHT22;20374;49.474;10.944;2024-02-26T05:14:27;2.90;99.90
34099;DHT22;20374;49.474;10.944;2024-02-26T05:16:53;2.80;99.90
34099;DHT22;20374;49.474;10.944;2024-02-26T05:19:19;2.90;99.90
34099;DHT22;20374;49.474;10.944;2024-02-26T05:21:45;2.80;99.90
34099;DHT22;20374;49.474;10.944;2024-02-26T05:24:13;2.90;99.90
34099;DHT22;20374;49.474;10.944;2024-02-26T05:26:41;2.80;99.90
34099;DHT22;20374;49.474;10.944;2024-02-26T05:29:07;2.80;99.90
34099;DHT22;20374;49.474;10.944;2024-02-26T05:31:33;2.80;99.90
34099;DHT22;20374;49.474;10.944;2024-02-26T05:33:58;2.90;99.90
34099;DHT22;20374;49.474;10.944;2024-02-26T05:36:24;2.90;99.90
34099;DHT22;20374;49.474;10.944;2024-02-26T05:38:51;2.90;99.90
34099;DHT22;20374;49.474;10.944;2024-02-26T05:41:17;2.90;99.90
34099;DHT22;20374;49.474;10.944;2024-02-26T05:43:49;2.90;99.90
34099;DHT22;20374;49.474;10.944;2024-02-26T05:46:19;2.90;99.90
34099;DHT22;20374;49.474;10.944;2024-02-26T05:48:51;2.90;99.90
34099;DHT22;20374;49.474;10.944;2024-02-26T05:51:17;2.90;99.90
34099;DHT22;20374;49.474;10.944;2024-02-26T05:53:44;3.00;99.90
34099;DHT22;20374;49.474;10.944;2024-02-26T05:56:10;2.90;99.90
34099;DHT22;20374;49.474;10.944;2024-02-26T05:58:36;2.90;99.90
34099;DHT22;20374;49.474;10.944;2024-02-26T06:01:02;3.00;99.90
34099;DHT22;20374;49.474;10.944;2024-02-26T06:03:29;3.00;99.90
34099;DHT22;20374;49.474;10.944;2024-02-26T06:05:55;3.00;99.90
34099;DHT22;20374;49.474;10.944;2024-02-26T06:08:21;3.00;99.90
34099;DHT22;20374;49.474;10.944;2024-02-26T06:10:48;3.00;99.90
34099;DHT22;20374;49.474;10.944;2024-02-26T06:13:13;3.00;99.90
34099;DHT22;20374;49.474;10.944;2024-02-26T06:15:39;3.00;99.90
34099;DHT22;20374;49.474;10.944;2024-02-26T06:18:05;3.00;99.90
34099;DHT22;20374;49.474;10.944;2024-02-26T06:20:31;3.00;99.90
34099;DHT22;20374;49.474;10.944;2024-02-26T06:22:57;3.10;99.90
34099;DHT22;20374;49.474;10.944;2024-02-26T06:25:23;3.20;99.90
34099;DHT22;20374;49.474;10.944;2024-02-26T06:27:49;3.20;99.90
34099;DHT22;20374;49.474;10.944;2024-02-26T06:30:15;3.20;99.90
34099;DHT22;20374;49.474;10.944;2024-02-26T06:32:41;3.30;99.90
34099;DHT22;20374;49.474;10.944;2024-02-26T06:35:07;3.30;99.90
34099;DHT22;20374;49.474;10.944;2024-02-26T06:37:34;3.40;99.90
34099;DHT22;20374;49.474;10.944;2024-02-26T06:40:01;3.40;99.90
34099;DHT22;20374;49.474;10.944;2024-02-26T06:42:30;3.50;99.90
34099;DHT22;20374;49.474;10.944;2024-02-26T06:44:56;3.60;99.90
34099;DHT22;20374;49.474;10.944;2024-02-26T06:47:22;3.80;99.90
34099;DHT22;20374;49.474;10.944;2024-02-26T06:49:48;3.80;99.90
34099;DHT22;20374;49.474;10.944;2024-02-26T06:52:13;3.80;99.90
34099;DHT22;20374;49.474;10.944;2024-02-26T06:54:39;3.80;99.90
34099;DHT22;20374;49.474;10.944;2024-02-26T06:57:05;3.80;99.90
34099;DHT22;20374;49.474;10.944;2024-02-26T06:59:31;3.80;99.90
34099;DHT22;20374;49.474;10.944;2024-02-26T07:01:57;3.90;99.90
34099;DHT22;20374;49.474;10.944;2024-02-26T07:04:23;4.00;99.90
34099;DHT22;20374;49.474;10.944;2024-02-26T07:06:49;4.10;99.90
34099;DHT22;20374;49.474;10.944;2024-02-26T07:09:15;4.10;99.90
34099;DHT22;20374;49.474;10.944;2024-02-26T07:11:41;4.10;99.90
34099;DHT22;20374;49.474;10.944;2024-02-26T07:14:12;4.20;99.90
34099;DHT22;20374;49.474;10.944;2024-02-26T07:16:38;4.30;99.90
34099;DHT22;20374;49.474;10.944;2024-02-26T07:19:04;4.30;99.90
34099;DHT22;20374;49.474;10.944;2024-02-26T07:21:30;4.30;99.90
34099;DHT22;20374;49.474;10.944;2024-02-26T07:23:56;4.40;99.90
34099;DHT22;20374;49.474;10.944;2024-02-26T07:26:23;4.40;99.90
34099;DHT22;20374;49.474;10.944;2024-02-26T07:28:51;4.40;99.90
34099;DHT22;20374;49.474;10.944;2024-02-26T07:31:17;4.50;99.90
34099;DHT22;20374;49.474;10.944;2024-02-26T07:33:43;4.60;99.90
34099;DHT22;20374;49.474;10.944;2024-02-26T07:36:09;4.80;99.90
34099;DHT22;20374;49.474;10.944;2024-02-26T07:38:35;4.90;99.90
34099;DHT22;20374;49.474;10.944;2024-02-26T07:41:02;5.20;99.90
34099;DHT22;20374;49.474;10.944;2024-02-26T07:43:28;5.50;99.90
34099;DHT22;20374;49.474;10.944;2024-02-26T07:45:54;5.80;99.90
34099;DHT22;20374;49.474;10.944;2024-02-26T07:48:20;5.90;99.90
34099;DHT22;20374;49.474;10.944;2024-02-26T07:50:46;6.20;99.90
34099;DHT22;20374;49.474;10.944;2024-02-26T07:53:15;6.10;99.90
34099;DHT22;20374;49.474;10.944;2024-02-26T07:55:41;6.20;99.90
34099;DHT22;20374;49.474;10.944;2024-02-26T07:58:07;6.30;99.90
34099;DHT22;20374;49.474;10.944;2024-02-26T08:00:33;6.40;99.90
34099;DHT22;20374;49.474;10.944;2024-02-26T08:02:58;6.40;99.90
34099;DHT22;20374;49.474;10.944;2024-02-26T08:05:24;6.50;99.90
34099;DHT22;20374;49.474;10.944;2024-02-26T08:07:51;6.30;99.90
34099;DHT22;20374;49.474;10.944;2024-02-26T08:10:16;6.30;99.90
34099;DHT22;20374;49.474;10.944;2024-02-26T08:12:42;6.20;99.90
34099;DHT22;20374;49.474;10.944;2024-02-26T08:15:08;6.20;99.90
34099;DHT22;20374;49.474;10.944;2024-02-26T08:17:35;6.20;99.90
34099;DHT22;20374;49.474;10.944;2024-02-26T08:20:02;6.20;99.90
34099;DHT22;20374;49.474;10.944;2024-02-26T08:22:28;6.20;99.90
34099;DHT22;20374;49.474;10.944;2024-02-26T08:24:54;6.20;99.90
34099;DHT22;20374;49.474;10.944;2024-02-26T08:27:19;6.20;99.90
34099;DHT22;20374;49.474;10.944;2024-02-26T08:29:45;6.30;99.90
34099;DHT22;20374;49.474;10.944;2024-02-26T08:32:11;6.20;99.90
34099;DHT22;20374;49.474;10.944;2024-02-26T08:34:37;6.20;99.90
34099;DHT22;20374;49.474;10.944;2024-02-26T08:37:03;6.20;99.90
34099;DHT22;20374;49.474;10.944;2024-02-26T08:39:29;6.20;99.90
34099;DHT22;20374;49.474;10.944;2024-02-26T08:41:55;6.20;99.90
34099;DHT22;20374;49.474;10.944;2024-02-26T08:44:21;6.20;99.90
34099;DHT22;20374;49.474;10.944;2024-02-26T08:46:47;6.20;99.90
34099;DHT22;20374;49.474;10.944;2024-02-26T08:49:13;6.10;99.90
34099;DHT22;20374;49.474;10.944;2024-02-26T08:51:43;6.10;99.90
34099;DHT22;20374;49.474;10.944;2024-02-26T08:54:11;6.20;99.90
34099;DHT22;20374;49.474;10.944;2024-02-26T08:56:37;6.30;99.90
34099;DHT22;20374;49.474;10.944;2024-02-26T08:59:03;6.40;99.90
34099;DHT22;20374;49.474;10.944;2024-02-26T09:01:31;6.60;99.90
34099;DHT22;20374;49.474;10.944;2024-02-26T09:03:58;6.70;99.90
34099;DHT22;20374;49.474;10.944;2024-02-26T09:06:24;6.90;99.90
34099;DHT22;20374;49.474;10.944;2024-02-26T09:08:50;7.00;99.90
34099;DHT22;20374;49.474;10.944;2024-02-26T09:11:16;7.10;99.90
34099;DHT22;20374;49.474;10.944;2024-02-26T09:13:42;7.30;99.90
34099;DHT22;20374;49.474;10.944;2024-02-26T09:16:08;7.40;99.90
34099;DHT22;20374;49.474;10.944;2024-02-26T09:18:34;7.50;99.90
34099;DHT22;20374;49.474;10.944;2024-02-26T09:20:59;7.80;99.90
34099;DHT22;20374;49.474;10.944;2024-02-26T09:23:25;7.90;99.90
34099;DHT22;20374;49.474;10.944;2024-02-26T09:25:51;8.20;99.90
34099;DHT22;20374;49.474;10.944;2024-02-26T09:28:17;8.50;99.90
34099;DHT22;20374;49.474;10.944;2024-02-26T09:30:44;8.70;99.90
34099;DHT22;20374;49.474;10.944;2024-02-26T09:33:10;8.90;99.90
34099;DHT22;20374;49.474;10.944;2024-02-26T09:35:37;9.00;99.90
34099;DHT22;20374;49.474;10.944;2024-02-26T09:38:03;9.10;99.90
34099;DHT22;20374;49.474;10.944;2024-02-26T09:40:29;8.90;99.90
34099;DHT22;20374;49.474;10.944;2024-02-26T09:43:01;8.90;99.90
34099;DHT22;20374;49.474;10.944;2024-02-26T09:45:30;9.00;99.90
34099;DHT22;20374;49.474;10.944;2024-02-26T09:47:58;9.10;99.90
34099;DHT22;20374;49.474;10.944;2024-02-26T09:50:24;9.00;99.90
34099;DHT22;20374;49.474;10.944;2024-02-26T09:52:51;9.00;99.90
34099;DHT22;20374;49.474;10.944;2024-02-26T09:55:18;9.10;99.90
34099;DHT22;20374;49.474;10.944;2024-02-26T09:57:46;9.10;99.90
34099;DHT22;20374;49.474;10.944;2024-02-26T10:00:18;9.10;99.90
34099;DHT22;20374;49.474;10.944;2024-02-26T10:02:47;9.20;99.90
34099;DHT22;20374;49.474;10.944;2024-02-26T10:05:19;9.30;99.90
34099;DHT22;20374;49.474;10.944;2024-02-26T10:08:09;9.40;99.90
34099;DHT22;20374;49.474;10.944;2024-02-26T10:10:35;9.30;99.90
34099;DHT22;20374;49.474;10.944;2024-02-26T10:13:03;9.30;99.90
34099;DHT22;20374;49.474;10.944;2024-02-26T10:15:34;9.50;99.90
34099;DHT22;20374;49.474;10.944;2024-02-26T10:18:04;9.60;99.90
34099;DHT22;20374;49.474;10.944;2024-02-26T10:20:30;9.70;99.90
34099;DHT22;20374;49.474;10.944;2024-02-26T10:22:57;9.90;99.90
34099;DHT22;20374;49.474;10.944;2024-02-26T10:25:23;10.00;99.90
34099;DHT22;20374;49.474;10.944;2024-02-26T10:27:49;10.30;99.40
34099;DHT22;20374;49.474;10.944;2024-02-26T10:30:22;10.50;98.50
34099;DHT22;20374;49.474;10.944;2024-02-26T10:32:51;10.40;98.70
34099;DHT22;20374;49.474;10.944;2024-02-26T10:35:18;10.60;97.70
34099;DHT22;20374;49.474;10.944;2024-02-26T10:37:46;10.60;97.20
34099;DHT22;20374;49.474;10.944;2024-02-26T10:40:15;10.60;97.90
34099;DHT22;20374;49.474;10.944;2024-02-26T10:42:42;10.60;98.00
34099;DHT22;20374;49.474;10.944;2024-02-26T10:45:09;10.50;97.70
34099;DHT22;20374;49.474;10.944;2024-02-26T10:47:36;10.50;98.00
34099;DHT22;20374;49.474;10.944;2024-02-26T10:50:04;10.50;97.80
34099;DHT22;20374;49.474;10.944;2024-02-26T10:52:32;10.60;96.90
34099;DHT22;20374;49.474;10.944;2024-02-26T10:55:04;10.50;96.40
34099;DHT22;20374;49.474;10.944;2024-02-26T10:57:34;10.60;96.80
34099;DHT22;20374;49.474;10.944;2024-02-26T11:00:02;10.80;95.50
34099;DHT22;20374;49.474;10.944;2024-02-26T11:02:34;11.00;96.20
34099;DHT22;20374;49.474;10.944;2024-02-26T11:05:06;11.30;96.60
34099;DHT22;20374;49.474;10.944;2024-02-26T11:07:33;11.80;94.00
34099;DHT22;20374;49.474;10.944;2024-02-26T11:10:00;11.90;94.00
34099;DHT22;20374;49.474;10.944;2024-02-26T11:12:28;12.00;93.50
34099;DHT22;20374;49.474;10.944;2024-02-26T11:14:55;12.30;93.40
34099;DHT22;20374;49.474;10.944;2024-02-26T11:17:22;12.50;91.90
34099;DHT22;20374;49.474;10.944;2024-02-26T11:19:50;12.50;92.50
34099;DHT22;20374;49.474;10.944;2024-02-26T11:22:17;12.70;92.70
34099;DHT22;20374;49.474;10.944;2024-02-26T11:24:43;12.70;92.10
34099;DHT22;20374;49.474;10.944;2024-02-26T11:27:10;12.70;92.20
34099;DHT22;20374;49.474;10.944;2024-02-26T11:29:44;12.80;92.00
34099;DHT22;20374;49.474;10.944;2024-02-26T11:32:12;13.00;92.10
34099;DHT22;20374;49.474;10.944;2024-02-26T11:34:38;12.90;91.50
34099;DHT22;20374;49.474;10.944;2024-02-26T11:37:15;13.10;91.80
34099;DHT22;20374;49.474;10.944;2024-02-26T11:39:42;13.20;90.40
34099;DHT22;20374;49.474;10.944;2024-02-26T11:42:09;13.40;90.10
34099;DHT22;20374;49.474;10.944;2024-02-26T11:44:35;13.50;87.40
34099;DHT22;20374;49.474;10.944;2024-02-26T11:49:36;13.70;87.30
34099;DHT22;20374;49.474;10.944;2024-02-26T11:52:06;13.80;86.10
34099;DHT22;20374;49.474;10.944;2024-02-26T11:54:45;13.90;82.80
34099;DHT22;20374;49.474;10.944;2024-02-26T11:57:21;13.60;83.40
34099;DHT22;20374;49.474;10.944;2024-02-26T11:59:48;13.60;84.80
34099;DHT22;20374;49.474;10.944;2024-02-26T12:05:17;13.80;81.70
34099;DHT22;20374;49.474;10.944;2024-02-26T12:07:48;13.80;83.70
34099;DHT22;20374;49.474;10.944;2024-02-26T12:12:53;14.00;81.40
34099;DHT22;20374;49.474;10.944;2024-02-26T12:15:23;14.00;79.90
34099;DHT22;20374;49.474;10.944;2024-02-26T12:17:49;13.80;81.60
34099;DHT22;20374;49.474;10.944;2024-02-26T12:20:17;13.70;82.60
34099;DHT22;20374;49.474;10.944;2024-02-26T12:22:46;13.90;81.30
34099;DHT22;20374;49.474;10.944;2024-02-26T12:25:16;13.80;82.30
34099;DHT22;20374;49.474;10.944;2024-02-26T12:27:42;13.80;83.20
34099;DHT22;20374;49.474;10.944;2024-02-26T12:30:08;13.70;84.40
34099;DHT22;20374;49.474;10.944;2024-02-26T12:32:35;13.70;83.00
34099;DHT22;20374;49.474;10.944;2024-02-26T12:35:01;13.60;82.40
34099;DHT22;20374;49.474;10.944;2024-02-26T12:37:28;13.80;82.60
34099;DHT22;20374;49.474;10.944;2024-02-26T12:39:54;14.10;82.60
34099;DHT22;20374;49.474;10.944;2024-02-26T12:42:20;14.40;82.80
34099;DHT22;20374;49.474;10.944;2024-02-26T12:44:46;14.60;82.00
34099;DHT22;20374;49.474;10.944;2024-02-26T12:47:12;14.90;84.90
34099;DHT22;20374;49.474;10.944;2024-02-26T12:49:51;15.10;81.50
34099;DHT22;20374;49.474;10.944;2024-02-26T12:52:17;15.20;80.50
34099;DHT22;20374;49.474;10.944;2024-02-26T12:54:44;15.70;81.90
34099;DHT22;20374;49.474;10.944;2024-02-26T12:57:10;16.20;80.90
34099;DHT22;20374;49.474;10.944;2024-02-26T12:59:36;17.00;80.40
34099;DHT22;20374;49.474;10.944;2024-02-26T13:02:03;17.30;76.20
34099;DHT22;20374;49.474;10.944;2024-02-26T13:04:30;17.80;78.20
34099;DHT22;20374;49.474;10.944;2024-02-26T13:06:56;18.00;77.30
34099;DHT22;20374;49.474;10.944;2024-02-26T13:09:30;18.40;74.70
34099;DHT22;20374;49.474;10.944;2024-02-26T13:11:57;18.90;73.70
34099;DHT22;20374;49.474;10.944;2024-02-26T13:14:24;19.90;69.10
34099;DHT22;20374;49.474;10.944;2024-02-26T13:16:57;20.10;67.10
34099;DHT22;20374;49.474;10.944;2024-02-26T13:19:24;20.30;69.10
34099;DHT22;20374;49.474;10.944;2024-02-26T13:21:50;21.10;68.40
34099;DHT22;20374;49.474;10.944;2024-02-26T13:24:16;21.50;63.50
34099;DHT22;20374;49.474;10.944;2024-02-26T13:26:43;21.80;64.20
34099;DHT22;20374;49.474;10.944;2024-02-26T13:29:17;22.00;60.50
34099;DHT22;20374;49.474;10.944;2024-02-26T13:31:43;21.00;62.80
34099;DHT22;20374;49.474;10.944;2024-02-26T13:34:09;20.10;64.50
34099;DHT22;20374;49.474;10.944;2024-02-26T13:36:35;19.90;64.80
34099;DHT22;20374;49.474;10.944;2024-02-26T13:39:01;20.50;62.20
34099;DHT22;20374;49.474;10.944;2024-02-26T13:41:30;20.80;62.00
34099;DHT22;20374;49.474;10.944;2024-02-26T13:43:56;20.60;63.90
34099;DHT22;20374;49.474;10.944;2024-02-26T13:46:23;20.00;62.00
34099;DHT22;20374;49.474;10.944;2024-02-26T13:48:49;19.40;62.00
34099;DHT22;20374;49.474;10.944;2024-02-26T13:51:15;18.50;64.20
34099;DHT22;20374;49.474;10.944;2024-02-26T13:53:42;17.50;66.60
34099;DHT22;20374;49.474;10.944;2024-02-26T13:56:10;16.80;67.80
34099;DHT22;20374;49.474;10.944;2024-02-26T13:58:35;16.30;70.30
34099;DHT22;20374;49.474;10.944;2024-02-26T14:01:01;15.80;70.40
34099;DHT22;20374;49.474;10.944;2024-02-26T14:03:29;15.60;67.40
34099;DHT22;20374;49.474;10.944;2024-02-26T14:05:55;15.20;70.30
34099;DHT22;20374;49.474;10.944;2024-02-26T14:08:22;14.90;71.30
34099;DHT22;20374;49.474;10.944;2024-02-26T14:10:48;14.70;71.60
34099;DHT22;20374;49.474;10.944;2024-02-26T14:13:14;14.60;74.40
34099;DHT22;20374;49.474;10.944;2024-02-26T14:15:40;14.40;74.60
34099;DHT22;20374;49.474;10.944;2024-02-26T14:18:07;14.20;73.30
34099;DHT22;20374;49.474;10.944;2024-02-26T14:20:33;14.00;74.50
34099;DHT22;20374;49.474;10.944;2024-02-26T14:22:59;13.80;73.90
34099;DHT22;20374;49.474;10.944;2024-02-26T14:25:26;13.70;73.30
34099;DHT22;20374;49.474;10.944;2024-02-26T14:27:52;13.70;75.40
34099;DHT22;20374;49.474;10.944;2024-02-26T14:30:21;13.60;72.10
34099;DHT22;20374;49.474;10.944;2024-02-26T14:32:47;13.60;74.80
34099;DHT22;20374;49.474;10.944;2024-02-26T14:35:13;13.50;74.10
34099;DHT22;20374;49.474;10.944;2024-02-26T14:37:39;13.50;72.40
34099;DHT22;20374;49.474;10.944;2024-02-26T14:40:05;13.40;74.20
34099;DHT22;20374;49.474;10.944;2024-02-26T14:42:31;13.40;72.80
34099;DHT22;20374;49.474;10.944;2024-02-26T14:44:57;13.30;73.20
34099;DHT22;20374;49.474;10.944;2024-02-26T14:47:23;13.20;73.80
34099;DHT22;20374;49.474;10.944;2024-02-26T14:49:49;13.20;73.60
34099;DHT22;20374;49.474;10.944;2024-02-26T14:52:17;13.10;73.00
34099;DHT22;20374;49.474;10.944;2024-02-26T14:54:43;13.10;74.40
34099;DHT22;20374;49.474;10.944;2024-02-26T14:57:10;13.10;74.00
34099;DHT22;20374;49.474;10.944;2024-02-26T14:59:35;13.00;75.00
34099;DHT22;20374;49.474;10.944;2024-02-26T15:02:02;12.90;75.30
34099;DHT22;20374;49.474;10.944;2024-02-26T15:04:28;12.90;72.40
34099;DHT22;20374;49.474;10.944;2024-02-26T15:06:54;12.90;72.60
34099;DHT22;20374;49.474;10.944;2024-02-26T15:09:20;12.80;73.70
34099;DHT22;20374;49.474;10.944;2024-02-26T15:11:46;12.80;73.50
34099;DHT22;20374;49.474;10.944;2024-02-26T15:14:12;12.70;75.60
34099;DHT22;20374;49.474;10.944;2024-02-26T15:16:38;12.60;76.70
34099;DHT22;20374;49.474;10.944;2024-02-26T15:19:04;12.40;77.80
34099;DHT22;20374;49.474;10.944;2024-02-26T15:21:32;12.30;78.60
34099;DHT22;20374;49.474;10.944;2024-02-26T15:23:58;12.20;78.50
34099;DHT22;20374;49.474;10.944;2024-02-26T15:26:27;12.20;79.70
34099;DHT22;20374;49.474;10.944;2024-02-26T15:28:53;12.10;81.20
34099;DHT22;20374;49.474;10.944;2024-02-26T15:31:21;12.00;81.00